createdAt,value
2023-01-01T00:02:07.568Z,99051.69
2023-01-01T00:04:37.180Z,99051.69
2023-01-01T00:07:04.285Z,99050.72
2023-01-01T00:09:49.374Z,99050.84
2023-01-01T00:12:16.498Z,99054.38
2023-01-01T00:14:44.429Z,99057.09
2023-01-01T00:17:11.626Z,99059.78
2023-01-01T00:19:38.657Z,99055.16
2023-01-01T00:22:27.795Z,99060.56
2023-01-01T00:24:52.474Z,99066.06
2023-01-01T00:27:19.571Z,99066.81
2023-01-01T00:29:46.300Z,99062.25
2023-01-01T00:32:17.610Z,99066.81
2023-01-01T00:34:47.571Z,99074.03
2023-01-01T00:37:15.445Z,99074.28
2023-01-01T00:39:42.200Z,99082.16
2023-01-01T00:42:09.304Z,99077.59
2023-01-01T00:44:36.034Z,99075.88
2023-01-01T00:47:03.101Z,99085.81
2023-01-01T00:49:29.819Z,99084.97
2023-01-01T00:51:56.877Z,99086.78
2023-01-01T00:54:23.655Z,99083.09
2023-01-01T00:56:50.763Z,99097.47
2023-01-01T00:59:17.530Z,99100.16
2023-01-01T01:01:44.730Z,99109.13
2023-01-01T01:04:11.567Z,99110.00
2023-01-01T01:06:38.639Z,99105.56
2023-01-01T01:09:07.133Z,99098.44
2023-01-01T01:11:34.335Z,99101.03
2023-01-01T01:14:01.076Z,99107.19
2023-01-01T01:16:30.000Z,99104.59
2023-01-01T01:18:59.524Z,99105.56
2023-01-01T01:21:27.687Z,99104.59
2023-01-01T01:23:55.034Z,99101.16
2023-01-01T01:26:23.790Z,99102.84
2023-01-01T01:28:50.930Z,99103.75
2023-01-01T01:31:18.990Z,99111.06
2023-01-01T01:33:46.201Z,99112.81
2023-01-01T01:36:13.554Z,99105.66
2023-01-01T01:38:40.424Z,99098.44
2023-01-01T01:41:07.651Z,99095.75
2023-01-01T01:43:34.363Z,99094.88
2023-01-01T01:46:09.139Z,99098.44
2023-01-01T01:48:54.075Z,99088.63
2023-01-01T01:51:33.534Z,99082.38
2023-01-01T01:54:01.712Z,99087.88
2023-01-01T01:56:31.917Z,99089.72
2023-01-01T01:58:58.717Z,99068.13
2023-01-01T02:01:25.944Z,99078.16
2023-01-01T02:03:57.505Z,99079.16
2023-01-01T02:06:26.486Z,99093.50
2023-01-01T02:08:53.457Z,99087.38
2023-01-01T02:11:22.185Z,99089.34
2023-01-01T02:13:49.767Z,99092.03
2023-01-01T02:16:21.549Z,99095.69
2023-01-01T02:19:01.907Z,99090.41
2023-01-01T02:21:40.308Z,99096.66
2023-01-01T02:24:16.114Z,99085.13
2023-01-01T02:27:08.013Z,99074.44
2023-01-01T02:29:38.552Z,99083.41
2023-01-01T02:32:14.591Z,99079.84
2023-01-01T02:34:53.581Z,99084.50
2023-01-01T02:37:20.666Z,99085.56
2023-01-01T02:39:53.219Z,99090.97
2023-01-01T02:42:20.290Z,99100.19
2023-01-01T02:44:48.866Z,99108.16
2023-01-01T02:47:18.177Z,99101.03
2023-01-01T02:50:07.019Z,99096.63
2023-01-01T02:52:37.160Z,99102.13
2023-01-01T02:55:33.283Z,99114.75
2023-01-01T02:58:32.275Z,99114.84
2023-01-01T03:01:08.258Z,99114.00
2023-01-01T03:03:40.170Z,99109.72
2023-01-01T03:06:24.036Z,99112.41
2023-01-01T03:09:11.408Z,99113.38
2023-01-01T03:11:39.664Z,99118.88
2023-01-01T03:14:27.862Z,99112.63
2023-01-01T03:17:01.188Z,99100.00
2023-01-01T03:19:30.485Z,99108.09
2023-01-01T03:21:57.195Z,99100.97
2023-01-01T03:24:44.269Z,99092.88
2023-01-01T03:27:36.216Z,99098.50
2023-01-01T03:30:08.272Z,99101.09
2023-01-01T03:33:01.092Z,99110.16
2023-01-01T03:35:35.315Z,99100.97
2023-01-01T03:38:02.838Z,99096.56
2023-01-01T03:40:29.945Z,99096.56
2023-01-01T03:42:59.956Z,99101.94
2023-01-01T03:45:29.769Z,99097.50
2023-01-01T03:47:56.653Z,99100.97
2023-01-01T03:50:31.769Z,99106.34
2023-01-01T03:53:17.786Z,99119.00
2023-01-01T03:55:46.937Z,99109.06
2023-01-01T03:58:27.419Z,99104.44
2023-01-01T04:00:57.743Z,99097.19
2023-01-01T04:03:25.893Z,99086.41
2023-01-01T04:05:52.989Z,99080.88
2023-01-01T04:08:19.695Z,99078.94
2023-01-01T04:10:51.701Z,99085.06
2023-01-01T04:13:18.473Z,99073.31
2023-01-01T04:15:45.535Z,99083.13
2023-01-01T04:18:12.294Z,99081.41
2023-01-01T04:20:39.402Z,99070.38
2023-01-01T04:23:06.182Z,99086.34
2023-01-01T04:25:33.270Z,99079.09
2023-01-01T04:28:02.342Z,99079.00
2023-01-01T04:30:29.686Z,99084.28
2023-01-01T04:32:56.603Z,99082.31
2023-01-01T04:35:23.653Z,99097.44
2023-01-01T04:37:50.365Z,99118.91
2023-01-01T04:40:17.821Z,99138.44
2023-01-01T04:42:44.559Z,99147.38
2023-01-01T04:45:15.533Z,99144.56
2023-01-01T04:47:42.628Z,99155.25
2023-01-01T04:50:09.803Z,99151.44
2023-01-01T04:52:36.764Z,99158.56
2023-01-01T04:55:03.900Z,99174.66
2023-01-01T04:57:30.934Z,99178.94
2023-01-01T04:59:58.056Z,99171.75
2023-01-01T05:02:24.940Z,99169.88
2023-01-01T05:04:52.048Z,99164.50
2023-01-01T05:07:18.767Z,99167.13
2023-01-01T05:09:45.853Z,99166.16
2023-01-01T05:12:12.632Z,99165.16
2023-01-01T05:14:39.753Z,99165.88
2023-01-01T05:17:06.496Z,99171.41
2023-01-01T05:19:33.641Z,99168.47
2023-01-01T05:22:05.358Z,99171.94
2023-01-01T05:24:37.457Z,99186.41
2023-01-01T05:27:04.231Z,99178.31
2023-01-01T05:29:31.283Z,99180.06
2023-01-01T05:31:58.097Z,99179.91
2023-01-01T05:34:25.565Z,99184.34
2023-01-01T05:36:52.415Z,99182.50
2023-01-01T05:39:19.413Z,99176.13
2023-01-01T05:41:46.151Z,99169.88
2023-01-01T05:44:13.194Z,99188.78
2023-01-01T05:46:40.019Z,99186.94
2023-01-01T05:49:09.415Z,99184.22
2023-01-01T05:54:02.267Z,99186.69
2023-01-01T05:56:29.004Z,99191.25
2023-01-01T05:58:56.329Z,99187.66
2023-01-01T06:01:24.967Z,99192.22
2023-01-01T06:03:52.879Z,99198.47
2023-01-01T06:06:21.444Z,99203.03
2023-01-01T06:08:55.876Z,99207.56
2023-01-01T06:11:22.802Z,99212.97
2023-01-01T06:13:52.567Z,99213.94
2023-01-01T06:16:19.354Z,99219.34
2023-01-01T06:18:46.435Z,99217.59
2023-01-01T06:21:13.924Z,99214.78
2023-01-01T06:23:41.062Z,99219.22
2023-01-01T06:26:18.630Z,99218.38
2023-01-01T06:28:45.897Z,99222.03
2023-01-01T06:31:13.627Z,99230.25
2023-01-01T06:33:40.817Z,99231.97
2023-01-01T06:36:09.397Z,99240.19
2023-01-01T06:38:38.367Z,99245.72
2023-01-01T06:41:06.928Z,99249.25
2023-01-01T06:43:34.673Z,99253.69
2023-01-01T06:46:11.064Z,99254.88
2023-01-01T06:48:38.154Z,99253.91
2023-01-01T06:51:09.218Z,99249.47
2023-01-01T06:53:36.299Z,99246.78
2023-01-01T06:56:03.465Z,99251.31
2023-01-01T06:58:30.663Z,99254.25
2023-01-01T07:01:08.647Z,99255.97
2023-01-01T07:03:36.657Z,99255.09
2023-01-01T07:06:03.950Z,99247.00
2023-01-01T07:08:30.720Z,99248.00
2023-01-01T07:10:58.046Z,99262.34
2023-01-01T07:13:25.377Z,99266.88
2023-01-01T07:15:52.530Z,99280.41
2023-01-01T07:18:22.915Z,99283.19
2023-01-01T07:20:51.249Z,99273.38
2023-01-01T07:23:18.026Z,99284.06
2023-01-01T07:25:45.262Z,99279.72
2023-01-01T07:28:13.169Z,99273.44
2023-01-01T07:30:40.304Z,99275.28
2023-01-01T07:33:09.573Z,99278.94
2023-01-01T07:35:36.626Z,99285.34
2023-01-01T07:38:03.368Z,99286.19
2023-01-01T07:40:30.481Z,99283.72
2023-01-01T07:42:57.241Z,99280.16
2023-01-01T07:45:24.991Z,99293.56
2023-01-01T07:47:53.959Z,99301.66
2023-01-01T07:50:21.517Z,99315.25
2023-01-01T07:52:48.301Z,99319.81
2023-01-01T07:55:16.126Z,99325.84
2023-01-01T07:57:43.509Z,99329.50
2023-01-01T08:00:12.040Z,99331.34
2023-01-01T08:02:39.015Z,99330.50
2023-01-01T08:05:06.623Z,99330.59
2023-01-01T08:07:33.412Z,99324.22
2023-01-01T08:10:00.777Z,99328.66
2023-01-01T08:12:27.568Z,99330.50
2023-01-01T08:14:54.590Z,99329.50
2023-01-01T08:17:21.350Z,99339.44
2023-01-01T08:19:49.378Z,99328.66
2023-01-01T08:22:16.252Z,99334.78
2023-01-01T08:24:43.275Z,99336.53
2023-01-01T08:27:14.342Z,99336.41
2023-01-01T08:29:41.789Z,99339.13
2023-01-01T08:32:08.581Z,99331.13
2023-01-01T08:34:35.743Z,99331.34
2023-01-01T08:37:02.515Z,99330.38
2023-01-01T08:39:29.739Z,99324.97
2023-01-01T08:41:56.512Z,99319.44
2023-01-01T08:44:23.595Z,99312.91
2023-01-01T08:46:52.662Z,99326.06
2023-01-01T08:49:19.766Z,99319.47
2023-01-01T08:51:46.488Z,99320.09
2023-01-01T08:54:13.688Z,99319.03
2023-01-01T08:56:40.406Z,99327.88
2023-01-01T08:59:07.430Z,99343.09
2023-01-01T09:01:34.337Z,99355.41
2023-01-01T09:04:01.501Z,99363.28
2023-01-01T09:06:28.196Z,99353.13
2023-01-01T09:08:55.254Z,99341.25
2023-01-01T09:11:23.355Z,99340.34
2023-01-01T09:13:50.452Z,99341.88
2023-01-01T09:16:17.444Z,99328.03
2023-01-01T09:18:44.555Z,99339.59
2023-01-01T09:21:11.312Z,99348.44
2023-01-01T09:23:38.385Z,99365.28
2023-01-01T09:26:06.020Z,99366.78
2023-01-01T09:28:33.221Z,99366.53
2023-01-01T09:31:01.142Z,99365.56
2023-01-01T09:33:28.696Z,99367.81
2023-01-01T09:35:55.644Z,99365.75
2023-01-01T09:38:22.759Z,99355.56
2023-01-01T09:41:14.456Z,99358.91
2023-01-01T09:43:56.748Z,99352.06
2023-01-01T09:46:31.185Z,99349.22
2023-01-01T09:48:59.703Z,99346.06
2023-01-01T09:51:26.583Z,99357.63
2023-01-01T09:54:05.230Z,99344.75
2023-01-01T09:56:32.080Z,99328.16
2023-01-01T09:58:59.390Z,99332.28
2023-01-01T10:01:45.116Z,99321.19
2023-01-01T10:04:15.176Z,99325.28
2023-01-01T10:06:44.901Z,99324.16
2023-01-01T10:09:34.522Z,99318.28
2023-01-01T10:12:07.105Z,99315.34
2023-01-01T10:14:39.169Z,99307.91
2023-01-01T10:17:29.210Z,99313.91
2023-01-01T10:20:03.259Z,99309.84
2023-01-01T10:22:37.664Z,99315.81
2023-01-01T10:25:19.971Z,99319.97
2023-01-01T10:28:06.972Z,99305.22
2023-01-01T10:30:34.024Z,99302.38
2023-01-01T10:33:00.772Z,99303.03
2023-01-01T10:35:36.080Z,99301.66
2023-01-01T10:38:03.770Z,99294.28
2023-01-01T10:40:30.909Z,99279.53
2023-01-01T10:42:59.224Z,99277.31
2023-01-01T10:45:32.548Z,99264.63
2023-01-01T10:48:24.270Z,99271.38
2023-01-01T10:50:51.662Z,99265.72
2023-01-01T10:53:26.289Z,99271.16
2023-01-01T10:55:58.819Z,99273.38
2023-01-01T10:58:38.701Z,99278.53
2023-01-01T11:01:08.068Z,99265.72
2023-01-01T11:03:35.015Z,99258.34
2023-01-01T11:06:02.771Z,99260.56
2023-01-01T11:08:33.990Z,99257.59
2023-01-01T11:11:02.133Z,99269.03
2023-01-01T11:13:29.315Z,99272.59
2023-01-01T11:15:56.479Z,99269.41
2023-01-01T11:18:36.120Z,99271.97
2023-01-01T11:21:04.535Z,99266.78
2023-01-01T11:23:35.081Z,99274.63
2023-01-01T11:26:14.141Z,99269.72
2023-01-01T11:28:41.219Z,99264.03
2023-01-01T11:31:13.567Z,99269.31
2023-01-01T11:33:50.579Z,99267.50
2023-01-01T11:36:25.364Z,99273.44
2023-01-01T11:39:07.792Z,99279.31
2023-01-01T11:41:45.352Z,99278.06
2023-01-01T11:44:12.503Z,99278.78
2023-01-01T11:46:39.605Z,99268.69
2023-01-01T11:49:15.704Z,99266.00
2023-01-01T11:51:42.857Z,99256.59
2023-01-01T11:54:32.829Z,99244.53
2023-01-01T11:57:22.170Z,99229.09
2023-01-01T12:00:00.690Z,99218.84
2023-01-01T12:02:36.811Z,99214.03
2023-01-01T12:05:16.212Z,99220.91
2023-01-01T12:07:44.400Z,99238.03
2023-01-01T12:10:25.637Z,99232.34
2023-01-01T12:13:01.843Z,99232.09
2023-01-01T12:15:47.427Z,99239.22
2023-01-01T12:18:35.342Z,99250.66
2023-01-01T12:21:05.437Z,99253.13
2023-01-01T12:23:32.557Z,99256.69
2023-01-01T12:26:12.921Z,99252.88
2023-01-01T12:28:59.356Z,99253.59
2023-01-01T12:31:51.173Z,99243.63
2023-01-01T12:34:36.613Z,99241.63
2023-01-01T12:37:10.561Z,99244.47
2023-01-01T12:40:25.255Z,99253.47
2023-01-01T12:43:07.651Z,99258.75
2023-01-01T12:45:43.693Z,99261.34
2023-01-01T12:48:37.554Z,99260.34
2023-01-01T12:51:13.798Z,99257.78
2023-01-01T12:54:13.346Z,99272.19
2023-01-01T12:56:44.711Z,99272.19
2023-01-01T12:59:22.496Z,99264.19
2023-01-01T13:01:49.871Z,99277.75
2023-01-01T13:04:18.273Z,99267.75
2023-01-01T13:06:48.365Z,99270.59
2023-01-01T13:09:15.777Z,99275.03
2023-01-01T13:11:45.238Z,99278.88
2023-01-01T13:14:12.722Z,99279.13
2023-01-01T13:16:45.641Z,99284.56
2023-01-01T13:19:31.936Z,99283.69
2023-01-01T13:21:59.829Z,99281.97
2023-01-01T13:24:26.904Z,99285.66
2023-01-01T13:26:54.115Z,99289.53
2023-01-01T13:29:20.824Z,99291.47
2023-01-01T13:31:47.895Z,99296.91
2023-01-01T13:34:37.680Z,99289.19
2023-01-01T13:37:11.053Z,99293.72
2023-01-01T13:39:59.882Z,99292.03
2023-01-01T13:42:52.634Z,99297.81
2023-01-01T13:46:09.303Z,99299.69
2023-01-01T13:48:32.780Z,99298.94
2023-01-01T13:51:47.204Z,99303.88
2023-01-01T13:54:55.736Z,99301.56
2023-01-01T13:57:25.359Z,99314.38
2023-01-01T13:59:55.289Z,99314.66
2023-01-01T14:02:36.047Z,99310.59
2023-01-01T14:05:31.162Z,99302.34
2023-01-01T14:07:58.021Z,99310.59
2023-01-01T14:10:28.275Z,99319.56
2023-01-01T14:13:16.367Z,99324.00
2023-01-01T14:15:46.457Z,99324.13
2023-01-01T14:18:14.763Z,99326.00
2023-01-01T14:20:52.204Z,99331.66
2023-01-01T14:23:33.743Z,99325.41
2023-01-01T14:26:01.095Z,99334.50
2023-01-01T14:28:30.219Z,99338.22
2023-01-01T14:30:58.287Z,99344.75
2023-01-01T14:33:27.144Z,99343.09
2023-01-01T14:35:55.203Z,99342.25
2023-01-01T14:38:27.170Z,99350.50
2023-01-01T14:41:06.416Z,99354.09
2023-01-01T14:43:33.172Z,99360.72
2023-01-01T14:46:02.564Z,99363.44
2023-01-01T14:48:32.850Z,99371.09
2023-01-01T14:50:59.851Z,99372.81
2023-01-01T14:53:33.463Z,99365.91
2023-01-01T14:56:00.507Z,99373.19
2023-01-01T14:58:28.074Z,99372.59
2023-01-01T15:01:13.418Z,99371.81
2023-01-01T15:03:40.247Z,99377.22
2023-01-01T15:06:16.293Z,99383.91
2023-01-01T15:08:43.073Z,99383.28
2023-01-01T15:11:10.281Z,99388.72
2023-01-01T15:13:37.045Z,99386.25
2023-01-01T15:16:18.091Z,99386.38
2023-01-01T15:18:50.529Z,99382.91
2023-01-01T15:21:38.766Z,99380.44
2023-01-01T15:24:16.266Z,99383.41
2023-01-01T15:26:45.347Z,99377.38
2023-01-01T15:29:16.745Z,99378.34
2023-01-01T15:31:47.543Z,99380.81
2023-01-01T15:34:35.573Z,99382.66
2023-01-01T15:37:31.883Z,99379.72
2023-01-01T15:40:00.208Z,99375.03
2023-01-01T15:42:38.172Z,99371.59
2023-01-01T15:45:27.500Z,99368.03
2023-01-01T15:47:58.260Z,99363.09
2023-01-01T15:50:25.092Z,99364.31
2023-01-01T15:52:57.088Z,99368.97
2023-01-01T15:55:25.843Z,99376.38
2023-01-01T15:57:52.878Z,99375.88
2023-01-01T16:00:30.997Z,99377.72
2023-01-01T16:03:00.356Z,99385.00
2023-01-01T16:05:27.519Z,99389.41
2023-01-01T16:08:04.835Z,99386.81
2023-01-01T16:10:32.044Z,99390.75
2023-01-01T16:12:59.271Z,99391.59
2023-01-01T16:15:26.050Z,99391.50
2023-01-01T16:17:53.173Z,99398.75
2023-01-01T16:20:20.285Z,99395.28
2023-01-01T16:22:47.444Z,99402.56
2023-01-01T16:25:22.158Z,99403.78
2023-01-01T16:27:49.260Z,99400.47
2023-01-01T16:30:16.120Z,99401.44
2023-01-01T16:32:43.148Z,99396.88
2023-01-01T16:35:12.467Z,99392.47
2023-01-01T16:37:39.635Z,99399.81
2023-01-01T16:40:07.605Z,99401.91
2023-01-01T16:42:34.679Z,99415.53
2023-01-01T16:45:01.541Z,99402.25
2023-01-01T16:47:29.896Z,99405.94
2023-01-01T16:49:56.638Z,99402.25
2023-01-01T16:52:23.683Z,99405.34
2023-01-01T16:54:50.505Z,99415.38
2023-01-01T16:57:17.572Z,99423.38
2023-01-01T16:59:44.339Z,99429.91
2023-01-01T17:02:11.590Z,99444.63
2023-01-01T17:04:38.455Z,99433.06
2023-01-01T17:07:05.548Z,99433.19
2023-01-01T17:09:32.342Z,99434.94
2023-01-01T17:11:59.379Z,99431.38
2023-01-01T17:14:26.276Z,99429.75
2023-01-01T17:16:56.365Z,99445.97
2023-01-01T17:19:23.118Z,99440.56
2023-01-01T17:21:50.298Z,99446.16
2023-01-01T17:24:17.699Z,99449.88
2023-01-01T17:26:45.063Z,99449.00
2023-01-01T17:29:12.128Z,99455.63
2023-01-01T17:31:39.278Z,99453.78
2023-01-01T17:34:06.056Z,99467.41
2023-01-01T17:36:33.169Z,99468.53
2023-01-01T17:38:59.985Z,99465.94
2023-01-01T17:41:27.106Z,99468.63
2023-01-01T17:43:54.056Z,99458.78
2023-01-01T17:46:29.761Z,99465.28
2023-01-01T17:48:56.858Z,99466.25
2023-01-01T17:51:24.012Z,99471.66
2023-01-01T17:53:50.830Z,99470.03
2023-01-01T17:56:18.563Z,99478.31
2023-01-01T17:58:45.982Z,99474.81
2023-01-01T18:01:13.242Z,99471.38
2023-01-01T18:03:40.487Z,99475.94
2023-01-01T18:06:07.691Z,99460.88
2023-01-01T18:08:34.526Z,99462.84
2023-01-01T18:11:01.660Z,99458.66
2023-01-01T18:13:28.402Z,99462.56
2023-01-01T18:16:00.248Z,99456.28
2023-01-01T18:18:28.121Z,99463.66
2023-01-01T18:21:02.189Z,99464.63
2023-01-01T18:23:35.731Z,99467.44
2023-01-01T18:26:03.116Z,99473.84
2023-01-01T18:28:29.970Z,99478.34
2023-01-01T18:31:16.989Z,99476.75
2023-01-01T18:33:44.150Z,99481.28
2023-01-01T18:36:16.081Z,99484.25
2023-01-01T18:38:45.088Z,99478.84
2023-01-01T18:41:30.580Z,99487.91
2023-01-01T18:43:57.762Z,99478.06
2023-01-01T18:46:24.917Z,99474.59
2023-01-01T18:48:58.677Z,99490.06
2023-01-01T18:51:26.400Z,99485.75
2023-01-01T18:53:57.799Z,99483.16
2023-01-01T18:56:24.975Z,99484.25
2023-01-01T18:58:51.961Z,99481.66
2023-01-01T19:01:21.745Z,99489.97
2023-01-01T19:03:49.875Z,99480.28
2023-01-01T19:06:30.521Z,99473.25
2023-01-01T19:09:23.369Z,99487.72
2023-01-01T19:11:51.743Z,99479.84
2023-01-01T19:14:25.432Z,99486.31
2023-01-01T19:16:55.745Z,99487.41
2023-01-01T19:19:23.478Z,99495.53
2023-01-01T19:21:52.619Z,99489.25
2023-01-01T19:24:26.857Z,99488.38
2023-01-01T19:27:00.181Z,99487.84
2023-01-01T19:29:29.374Z,99492.25
2023-01-01T19:31:57.177Z,99495.09
2023-01-01T19:34:24.256Z,99496.06
2023-01-01T19:36:51.506Z,99487.97
2023-01-01T19:39:18.298Z,99486.22
2023-01-01T19:41:45.469Z,99482.75
2023-01-01T19:44:12.376Z,99487.31
2023-01-01T19:46:39.599Z,99487.22
2023-01-01T19:49:06.528Z,99488.16
2023-01-01T19:51:33.582Z,99491.72
2023-01-01T19:54:00.381Z,99495.53
2023-01-01T19:56:27.559Z,99488.38
2023-01-01T19:58:54.376Z,99493.88
2023-01-01T20:01:21.647Z,99491.19
2023-01-01T20:03:54.617Z,99493.16
2023-01-01T20:06:23.407Z,99501.25
2023-01-01T20:08:50.214Z,99494.25
2023-01-01T20:11:17.430Z,99494.34
2023-01-01T20:13:44.182Z,99498.66
2023-01-01T20:16:11.292Z,99500.59
2023-01-01T20:18:38.154Z,99498.97
2023-01-01T20:21:26.641Z,99499.97
2023-01-01T20:23:54.932Z,99497.34
2023-01-01T20:26:23.760Z,99500.91
2023-01-01T20:29:09.283Z,99495.50
2023-01-01T20:31:36.671Z,99492.06
2023-01-01T20:34:03.530Z,99496.63
2023-01-01T20:36:49.181Z,99499.31
2023-01-01T20:39:15.941Z,99494.03
2023-01-01T20:41:43.175Z,99493.13
2023-01-01T20:44:10.059Z,99493.13
2023-01-01T20:46:38.425Z,99488.72
2023-01-01T20:49:05.318Z,99491.41
2023-01-01T20:51:32.840Z,99501.47
2023-01-01T20:53:59.726Z,99484.28
2023-01-01T20:56:27.338Z,99492.50
2023-01-01T20:59:00.074Z,99488.94
2023-01-01T21:01:28.372Z,99495.28
2023-01-01T21:03:55.284Z,99499.09
2023-01-01T21:06:24.657Z,99493.69
2023-01-01T21:08:52.453Z,99496.50
2023-01-01T21:11:19.565Z,99493.84
2023-01-01T21:13:46.610Z,99499.38
2023-01-01T21:16:18.175Z,99503.03
2023-01-01T21:18:45.595Z,99495.91
2023-01-01T21:21:18.775Z,99492.47
2023-01-01T21:23:45.709Z,99495.28
2023-01-01T21:26:19.293Z,99488.22
2023-01-01T21:28:47.515Z,99494.63
2023-01-01T21:31:15.422Z,99491.69
2023-01-01T21:33:43.041Z,99491.03
2023-01-01T21:36:17.815Z,99493.84
2023-01-01T21:38:45.038Z,99488.78
2023-01-01T21:41:19.323Z,99485.28
2023-01-01T21:43:56.906Z,99488.00
2023-01-01T21:46:30.110Z,99483.59
2023-01-01T21:48:57.795Z,99487.34
2023-01-01T21:51:41.403Z,99487.44
2023-01-01T21:54:12.055Z,99482.94
2023-01-01T21:56:40.226Z,99482.06
2023-01-01T21:59:25.899Z,99484.00
2023-01-01T22:01:58.340Z,99484.00
2023-01-01T22:04:26.364Z,99480.56
2023-01-01T22:06:53.889Z,99479.69
2023-01-01T22:09:56.008Z,99477.00
2023-01-01T22:12:24.761Z,99475.34
2023-01-01T22:14:52.752Z,99476.09
2023-01-01T22:17:21.089Z,99469.84
2023-01-01T22:19:48.526Z,99475.25
2023-01-01T22:22:19.891Z,99476.22
2023-01-01T22:25:25.472Z,99475.25
2023-01-01T22:27:52.545Z,99470.16
2023-01-01T22:30:19.308Z,99468.22
2023-01-01T22:32:50.420Z,99468.22
2023-01-01T22:35:29.995Z,99473.72
2023-01-01T22:37:57.132Z,99480.97
2023-01-01T22:40:29.908Z,99478.38
2023-01-01T22:42:57.718Z,99481.81
2023-01-01T22:45:24.577Z,99477.31
2023-01-01T22:47:51.636Z,99478.25
2023-01-01T22:50:26.187Z,99470.28
2023-01-01T22:52:53.327Z,99467.56
2023-01-01T22:55:20.128Z,99466.72
2023-01-01T22:57:47.222Z,99473.06
2023-01-01T23:00:14.560Z,99475.75
2023-01-01T23:02:41.631Z,99472.31
2023-01-01T23:05:08.581Z,99468.88
2023-01-01T23:07:41.719Z,99483.22
2023-01-01T23:10:10.488Z,99476.31
2023-01-01T23:12:37.636Z,99470.03
2023-01-01T23:15:23.368Z,99452.97
2023-01-01T23:17:50.500Z,99455.69
2023-01-01T23:20:17.224Z,99457.53
2023-01-01T23:22:45.377Z,99458.47
2023-01-01T23:25:13.530Z,99444.91
2023-01-01T23:27:40.629Z,99446.09
2023-01-01T23:30:07.859Z,99447.78
2023-01-01T23:32:34.921Z,99445.31
2023-01-01T23:35:01.683Z,99443.50
2023-01-01T23:37:28.755Z,99440.91
2023-01-01T23:39:55.512Z,99442.59
2023-01-01T23:42:22.571Z,99440.91
2023-01-01T23:44:49.637Z,99437.22
2023-01-01T23:47:16.720Z,99438.19
2023-01-01T23:49:43.461Z,99439.16
2023-01-01T23:52:10.466Z,99446.41
2023-01-01T23:54:39.074Z,99443.69
2023-01-01T23:57:06.151Z,99439.34
2023-01-01T23:59:32.897Z,99437.53
